createdAt,value
2023-02-17T00:00:24.507Z,2.48
2023-02-17T00:00:56.929Z,2.46
2023-02-17T00:01:32.817Z,2.44
2023-02-17T00:02:05.535Z,2.41
2023-02-17T00:02:38.641Z,2.38
2023-02-17T00:03:10.988Z,2.36
2023-02-17T00:03:43.342Z,2.34
2023-02-17T00:04:15.712Z,2.32
2023-02-17T00:04:48.100Z,2.32
2023-02-17T00:05:20.453Z,2.31
2023-02-17T00:05:53.245Z,2.31
2023-02-17T00:06:28.617Z,2.29
2023-02-17T00:07:01.015Z,2.26
2023-02-17T00:07:34.902Z,2.22
2023-02-17T00:08:07.218Z,2.19
2023-02-17T00:08:39.613Z,2.15
2023-02-17T00:09:11.897Z,2.12
2023-02-17T00:09:44.216Z,2.10
2023-02-17T00:10:16.928Z,2.09
2023-02-17T00:10:57.204Z,2.06
2023-02-17T00:11:30.175Z,2.03
2023-02-17T00:12:02.493Z,2.03
2023-02-17T00:12:35.020Z,2.04
2023-02-17T00:13:07.387Z,2.03
2023-02-17T00:13:40.524Z,2.03
2023-02-17T00:14:14.059Z,2.02
2023-02-17T00:14:46.415Z,2.01
2023-02-17T00:15:18.729Z,2.00
2023-02-17T00:15:51.326Z,1.98
2023-02-17T00:16:27.132Z,1.96
2023-02-17T00:16:59.461Z,1.93
2023-02-17T00:17:31.796Z,1.90
2023-02-17T00:18:04.266Z,1.87
2023-02-17T00:18:36.884Z,1.84
2023-02-17T00:19:25.287Z,1.82
2023-02-17T00:19:57.851Z,1.78
2023-02-17T00:20:30.473Z,1.75
2023-02-17T00:21:14.281Z,1.74
2023-02-17T00:21:46.595Z,1.74
2023-02-17T00:22:18.928Z,1.75
2023-02-17T00:22:51.251Z,1.75
2023-02-17T00:23:23.587Z,1.75
2023-02-17T00:23:57.532Z,1.73
2023-02-17T00:24:32.153Z,1.72
2023-02-17T00:25:05.142Z,1.71
2023-02-17T00:25:38.719Z,1.71
2023-02-17T00:26:11.876Z,1.72
2023-02-17T00:26:44.268Z,1.72
2023-02-17T00:27:16.665Z,1.72
2023-02-17T00:27:48.981Z,1.74
2023-02-17T00:28:21.316Z,1.74
2023-02-17T00:28:53.974Z,1.74
2023-02-17T00:29:26.999Z,1.75
2023-02-17T00:29:59.362Z,1.74
2023-02-17T00:30:31.811Z,1.74
2023-02-17T00:31:09.212Z,1.74
2023-02-17T00:31:41.717Z,1.73
2023-02-17T00:32:14.169Z,1.73
2023-02-17T00:32:46.634Z,1.74
2023-02-17T00:33:18.989Z,1.74
2023-02-17T00:33:54.436Z,1.74
2023-02-17T00:34:28.176Z,1.75
2023-02-17T00:35:00.578Z,1.75
2023-02-17T00:35:32.956Z,1.75
2023-02-17T00:36:12.990Z,1.75
2023-02-17T00:36:45.538Z,1.74
2023-02-17T00:37:17.933Z,1.74
2023-02-17T00:37:50.304Z,1.74
2023-02-17T00:38:22.639Z,1.73
2023-02-17T00:38:57.292Z,1.74
2023-02-17T00:39:29.887Z,1.74
2023-02-17T00:40:02.221Z,1.74
2023-02-17T00:40:34.584Z,1.74
2023-02-17T00:41:06.969Z,1.74
2023-02-17T00:41:39.321Z,1.74
2023-02-17T00:42:11.661Z,1.74
2023-02-17T00:42:44.031Z,1.74
2023-02-17T00:43:16.405Z,1.73
2023-02-17T00:43:49.512Z,1.73
2023-02-17T00:44:24.126Z,1.74
2023-02-17T00:44:56.466Z,1.74
2023-02-17T00:45:28.877Z,1.75
2023-02-17T00:46:04.175Z,1.75
2023-02-17T00:46:36.872Z,1.75
2023-02-17T00:47:09.237Z,1.75
2023-02-17T00:47:41.590Z,1.75
2023-02-17T00:48:13.978Z,1.75
2023-02-17T00:48:47.674Z,1.75
2023-02-17T00:49:24.066Z,1.75
2023-02-17T00:49:56.446Z,1.75
2023-02-17T00:50:28.797Z,1.75
2023-02-17T00:51:01.173Z,1.75
2023-02-17T00:51:33.558Z,1.75
2023-02-17T00:52:05.984Z,1.76
2023-02-17T00:52:38.364Z,1.77
2023-02-17T00:53:10.857Z,1.78
2023-02-17T00:53:43.527Z,1.79
2023-02-17T00:54:17.298Z,1.79
2023-02-17T00:54:49.657Z,1.79
2023-02-17T00:55:22.078Z,1.79
2023-02-17T00:55:54.789Z,1.79
2023-02-17T00:56:27.197Z,1.80
2023-02-17T00:56:59.644Z,1.80
2023-02-17T00:57:32.586Z,1.80
2023-02-17T00:58:05.279Z,1.81
2023-02-17T00:58:38.492Z,1.81
2023-02-17T00:59:11.840Z,1.81
2023-02-17T00:59:44.325Z,1.83
2023-02-17T01:00:17.243Z,1.85
2023-02-17T01:00:49.798Z,1.87
2023-02-17T01:01:22.270Z,1.88
2023-02-17T01:01:54.797Z,1.89
2023-02-17T01:02:27.273Z,1.89
2023-02-17T01:02:59.792Z,1.89
2023-02-17T01:03:32.564Z,1.90
2023-02-17T01:04:05.841Z,1.92
2023-02-17T01:04:38.511Z,1.94
2023-02-17T01:05:11.301Z,1.94
2023-02-17T01:05:46.666Z,1.95
2023-02-17T01:06:31.675Z,1.95
2023-02-17T01:07:09.624Z,1.95
2023-02-17T01:07:45.404Z,1.95
2023-02-17T01:08:19.333Z,1.95
2023-02-17T01:08:55.200Z,1.95
2023-02-17T01:09:32.063Z,1.94
2023-02-17T01:10:10.109Z,1.94
2023-02-17T01:10:47.550Z,1.94
2023-02-17T01:11:25.733Z,1.94
2023-02-17T01:11:59.138Z,1.94
2023-02-17T01:12:36.597Z,1.94
2023-02-17T01:13:19.046Z,1.94
2023-02-17T01:14:00.989Z,1.95
2023-02-17T01:14:42.439Z,1.95
2023-02-17T01:15:18.295Z,1.95
2023-02-17T01:16:02.767Z,1.95
2023-02-17T01:16:42.508Z,1.95
2023-02-17T01:17:44.348Z,1.95
2023-02-17T01:18:35.492Z,1.94
2023-02-17T01:19:54.562Z,1.94
2023-02-17T06:02:00.718Z,1.86
2023-02-17T06:02:33.022Z,1.87
2023-02-17T06:03:05.390Z,1.87
2023-02-17T06:03:38.119Z,1.87
2023-02-17T06:04:10.421Z,1.88
2023-02-17T06:04:42.887Z,1.88
2023-02-17T06:05:15.688Z,1.89
2023-02-17T06:05:48.049Z,1.89
2023-02-17T06:06:20.565Z,1.89
2023-02-17T06:06:52.886Z,1.90
2023-02-17T06:07:25.475Z,1.90
2023-02-17T06:07:57.756Z,1.91
2023-02-17T06:08:30.178Z,1.91
2023-02-17T06:09:02.568Z,1.92
2023-02-17T06:09:34.883Z,1.93
2023-02-17T06:10:08.657Z,1.93
2023-02-17T06:10:42.335Z,1.94
2023-02-17T06:11:14.692Z,2.08
2023-02-17T06:11:47.016Z,2.36
2023-02-17T06:12:19.348Z,2.57
2023-02-17T06:12:51.697Z,2.73
2023-02-17T06:13:24.203Z,2.94
2023-02-17T06:13:56.486Z,3.13
2023-02-17T06:14:28.933Z,3.33
2023-02-17T06:15:01.361Z,3.49
2023-02-17T06:15:33.963Z,3.62
2023-02-17T06:16:06.936Z,3.73
2023-02-17T06:16:39.515Z,3.77
2023-02-17T06:17:11.827Z,3.75
2023-02-17T06:17:44.149Z,3.73
2023-02-17T06:18:16.914Z,3.71
2023-02-17T06:18:49.232Z,3.67
2023-02-17T06:19:21.557Z,3.64
2023-02-17T06:19:53.912Z,3.64
2023-02-17T06:20:26.253Z,3.63
2023-02-17T06:20:59.487Z,3.63
2023-02-17T06:21:32.016Z,3.62
2023-02-17T06:22:04.357Z,3.60
2023-02-17T06:22:36.853Z,3.58
2023-02-17T06:23:09.422Z,3.55
2023-02-17T06:23:41.764Z,3.52
2023-02-17T06:24:14.069Z,3.49
2023-02-17T06:24:46.506Z,3.46
2023-02-17T06:25:18.811Z,3.45
2023-02-17T06:25:51.276Z,3.44
2023-02-17T06:26:23.950Z,3.43
2023-02-17T06:26:56.223Z,3.43
2023-02-17T06:27:28.552Z,3.41
2023-02-17T06:28:01.040Z,3.40
2023-02-17T06:28:35.086Z,3.38
2023-02-17T06:29:08.572Z,3.37
2023-02-17T06:29:40.905Z,3.36
2023-02-17T06:30:14.770Z,3.35
2023-02-17T06:30:47.140Z,3.33
2023-02-17T06:31:19.512Z,3.33
2023-02-17T06:31:51.921Z,3.34
2023-02-17T06:32:24.316Z,3.34
2023-02-17T06:32:58.289Z,3.32
2023-02-17T06:33:30.679Z,3.32
2023-02-17T06:34:05.429Z,3.31
2023-02-17T06:34:38.912Z,3.30
2023-02-17T06:35:11.295Z,3.29
2023-02-17T06:35:48.304Z,3.29
2023-02-17T06:36:20.752Z,3.28
2023-02-17T06:36:53.162Z,3.27
2023-02-17T06:37:25.441Z,3.27
2023-02-17T06:37:58.211Z,3.27
2023-02-17T06:38:30.660Z,3.28
2023-02-17T06:39:03.137Z,3.28
2023-02-17T06:39:35.428Z,3.28
2023-02-17T06:40:08.365Z,3.28
2023-02-17T06:40:40.646Z,3.28
2023-02-17T06:41:13.373Z,3.28
2023-02-17T06:41:45.682Z,3.28
2023-02-17T06:42:18.027Z,3.27
2023-02-17T06:42:50.380Z,3.26
2023-02-17T06:43:22.664Z,3.26
2023-02-17T06:43:54.973Z,3.25
2023-02-17T06:44:27.464Z,3.24
2023-02-17T06:45:00.908Z,3.24
2023-02-17T06:45:33.460Z,3.24
2023-02-17T06:46:06.226Z,3.25
2023-02-17T06:46:40.417Z,3.25
2023-02-17T06:47:12.773Z,3.25
2023-02-17T06:47:45.198Z,3.25
2023-02-17T06:48:17.554Z,3.24
2023-02-17T06:48:49.902Z,3.24
2023-02-17T06:49:22.308Z,3.24
2023-02-17T06:49:54.588Z,3.25
2023-02-17T06:50:27.061Z,3.25
2023-02-17T06:51:00.296Z,3.25
2023-02-17T06:51:32.603Z,3.25
2023-02-17T06:52:05.116Z,3.24
2023-02-17T06:52:37.515Z,3.24
2023-02-17T06:53:09.867Z,3.23
2023-02-17T06:53:42.330Z,3.23
2023-02-17T06:54:15.857Z,3.23
2023-02-17T06:54:48.190Z,3.22
2023-02-17T06:55:20.649Z,3.22
2023-02-17T06:55:59.767Z,3.22
2023-02-17T06:56:32.180Z,3.22
2023-02-17T06:57:04.676Z,3.21
2023-02-17T06:57:37.005Z,3.21
2023-02-17T06:58:11.993Z,3.22
2023-02-17T06:58:44.321Z,3.22
2023-02-17T06:59:17.034Z,3.21
2023-02-17T06:59:49.427Z,3.21
2023-02-17T07:00:22.601Z,3.21
2023-02-17T07:00:54.983Z,3.21
2023-02-17T07:01:27.343Z,3.21
2023-02-17T07:02:02.421Z,3.21
2023-02-17T07:02:38.321Z,3.21
2023-02-17T07:03:10.967Z,3.22
2023-02-17T07:03:43.628Z,3.23
2023-02-17T07:04:16.946Z,3.23
2023-02-17T07:04:49.629Z,3.24
2023-02-17T07:05:21.925Z,3.24
2023-02-17T07:05:59.201Z,3.24
2023-02-17T07:06:31.562Z,3.26
2023-02-17T07:07:05.100Z,3.27
2023-02-17T07:07:37.587Z,3.27
2023-02-17T07:08:10.088Z,3.28
2023-02-17T07:08:42.438Z,3.29
2023-02-17T07:09:14.774Z,3.30
2023-02-17T07:09:47.191Z,3.31
2023-02-17T07:10:19.910Z,3.32
2023-02-17T07:10:52.468Z,3.33
2023-02-17T07:11:24.988Z,3.33
2023-02-17T07:11:59.952Z,3.35
2023-02-17T07:12:32.326Z,3.36
2023-02-17T07:13:04.688Z,3.38
2023-02-17T07:13:37.991Z,3.38
2023-02-17T07:14:10.322Z,3.39
2023-02-17T07:14:42.656Z,3.40
2023-02-17T07:15:15.088Z,3.41
2023-02-17T07:15:47.454Z,3.41
2023-02-17T07:16:19.815Z,3.41
2023-02-17T07:16:54.278Z,3.42
2023-02-17T07:17:27.605Z,3.42
2023-02-17T07:20:22.217Z,3.42
2023-02-17T07:20:54.777Z,3.42
2023-02-17T07:21:27.826Z,3.43
2023-02-17T07:22:01.613Z,3.43
2023-02-17T07:23:08.923Z,3.43
2023-02-17T07:23:41.391Z,3.44
2023-02-17T07:24:13.751Z,3.45
2023-02-17T07:24:46.256Z,3.46
2023-02-17T07:25:18.695Z,3.47
2023-02-17T07:25:51.259Z,3.47
2023-02-17T07:26:23.554Z,3.48
2023-02-17T07:27:09.091Z,3.49
2023-02-17T07:27:44.069Z,3.52
2023-02-17T07:28:16.614Z,3.52
2023-02-17T07:28:49.125Z,3.54
2023-02-17T07:29:21.976Z,3.56
2023-02-17T07:29:55.693Z,3.58
2023-02-17T07:30:28.251Z,3.59
2023-02-17T07:31:13.007Z,3.61
2023-02-17T07:31:45.491Z,3.64
2023-02-17T07:32:18.043Z,3.66
2023-02-17T07:32:50.530Z,3.68
2023-02-17T07:33:23.028Z,3.70
2023-02-17T07:33:55.458Z,3.72
2023-02-17T07:34:27.868Z,3.74
2023-02-17T07:35:00.312Z,3.76
2023-02-17T07:35:32.850Z,3.78
2023-02-17T07:36:10.679Z,3.80
2023-02-17T07:36:43.122Z,3.82
2023-02-17T07:37:15.439Z,3.84
2023-02-17T07:37:47.860Z,3.85
2023-02-17T07:38:20.240Z,3.87
2023-02-17T07:39:01.246Z,3.89
2023-02-17T07:39:36.094Z,3.90
2023-02-17T07:40:28.746Z,3.91
2023-02-17T07:41:09.238Z,3.94
2023-02-17T07:41:41.992Z,3.97
2023-02-17T07:42:16.901Z,3.98
2023-02-17T07:42:49.460Z,4.00
2023-02-17T07:43:21.934Z,4.01
2023-02-17T07:43:58.224Z,4.03
2023-02-17T07:44:30.788Z,4.05
2023-02-17T07:45:03.587Z,4.06
2023-02-17T07:45:38.295Z,4.06
2023-02-17T07:46:11.796Z,4.07
2023-02-17T07:46:44.241Z,4.09
2023-02-17T07:47:17.156Z,4.11
2023-02-17T07:47:54.012Z,4.13
2023-02-17T07:48:29.105Z,4.15
2023-02-17T07:49:01.552Z,4.17
2023-02-17T07:49:36.781Z,4.18
2023-02-17T07:50:47.232Z,4.19
2023-02-17T07:51:27.191Z,4.23
2023-02-17T07:52:01.092Z,4.27
2023-02-17T07:52:35.077Z,4.30
2023-02-17T07:53:07.445Z,4.31
2023-02-17T07:53:43.582Z,4.32
2023-02-17T07:54:16.076Z,4.33
2023-02-17T07:54:48.389Z,4.34
2023-02-17T07:55:20.771Z,4.36
2023-02-17T07:56:02.572Z,4.37
2023-02-17T07:56:36.464Z,4.39
2023-02-17T07:57:17.837Z,4.41
2023-02-17T07:57:50.249Z,4.42
2023-02-17T07:58:37.157Z,4.44
2023-02-17T07:59:11.590Z,4.46
2023-02-17T07:59:43.917Z,4.47
2023-02-17T08:00:16.959Z,4.49
2023-02-17T08:00:51.629Z,4.49
2023-02-17T08:01:29.260Z,4.50
2023-02-17T08:02:36.502Z,4.51
2023-02-17T08:03:12.102Z,4.74
2023-02-17T08:03:49.085Z,5.03
2023-02-17T08:04:21.424Z,5.37
2023-02-17T08:04:53.778Z,5.48
2023-02-17T08:05:28.285Z,5.54
2023-02-17T08:06:01.077Z,5.68
2023-02-17T08:06:33.618Z,5.97
2023-02-17T08:07:05.923Z,6.27
2023-02-17T08:07:38.409Z,6.48
2023-02-17T08:08:29.697Z,6.61
2023-02-17T08:09:20.708Z,6.64
2023-02-17T08:10:14.019Z,6.69
2023-02-17T08:11:05.139Z,6.71
2023-02-17T08:11:56.734Z,6.73
2023-02-17T08:12:47.979Z,6.74
2023-02-17T08:13:20.397Z,6.72
2023-02-17T08:13:52.787Z,6.72
2023-02-17T08:14:27.599Z,6.71
2023-02-17T08:15:00.276Z,6.70
2023-02-17T08:15:35.495Z,6.70
2023-02-17T08:16:08.913Z,6.70
2023-02-17T08:17:13.870Z,6.71
2023-02-17T08:17:55.240Z,6.72
2023-02-17T08:18:29.153Z,6.70
2023-02-17T08:19:02.930Z,6.69
2023-02-17T08:19:47.419Z,6.68
2023-02-17T08:20:20.592Z,6.67
2023-02-17T08:20:53.086Z,6.66
2023-02-17T08:21:27.201Z,6.65
2023-02-17T08:22:00.161Z,6.66
2023-02-17T08:22:33.734Z,6.69
2023-02-17T08:23:06.485Z,6.71
2023-02-17T08:23:38.874Z,6.70
2023-02-17T08:24:12.289Z,6.69
2023-02-17T08:24:44.825Z,6.66
2023-02-17T08:25:17.339Z,6.63
2023-02-17T08:25:49.760Z,6.59
2023-02-17T08:26:22.840Z,6.57
2023-02-17T08:26:55.836Z,6.54
2023-02-17T08:27:28.276Z,6.51
2023-02-17T08:28:02.331Z,6.47
2023-02-17T08:28:34.734Z,6.44
2023-02-17T08:29:07.011Z,6.41
2023-02-17T08:29:39.472Z,6.38
2023-02-17T08:30:12.432Z,6.36
2023-02-17T08:30:45.657Z,6.34
2023-02-17T08:31:28.292Z,6.31
2023-02-17T08:32:06.217Z,6.29
2023-02-17T08:32:41.950Z,6.27
2023-02-17T08:33:18.029Z,6.25
2023-02-17T08:33:51.469Z,6.24
2023-02-17T08:34:26.661Z,6.22
2023-02-17T08:35:10.983Z,6.20
2023-02-17T08:36:39.577Z,6.18
2023-02-17T08:37:12.094Z,6.11
2023-02-17T08:37:59.940Z,6.09
2023-02-17T08:39:45.300Z,6.07
2023-02-17T08:40:49.796Z,6.04
2023-02-17T08:42:18.753Z,6.02
2023-02-17T08:42:53.149Z,6.01
2023-02-17T08:43:45.059Z,6.00
2023-02-17T08:44:28.294Z,6.00
2023-02-17T08:45:06.686Z,6.00
2023-02-17T08:45:53.629Z,6.00
2023-02-17T08:53:36.126Z,6.34
2023-02-17T08:54:46.532Z,6.63
2023-02-17T09:00:20.369Z,9.92
2023-02-17T09:01:07.603Z,10.02
2023-02-17T09:01:43.877Z,10.18
2023-02-17T09:04:07.226Z,10.70
2023-02-17T09:04:40.200Z,10.99
2023-02-17T09:05:17.419Z,11.10
2023-02-17T09:05:51.245Z,11.26
2023-02-17T09:06:43.639Z,11.61
2023-02-17T09:07:25.523Z,11.84
2023-02-17T09:07:59.614Z,12.40
2023-02-17T09:08:41.902Z,12.78
2023-02-17T09:09:32.337Z,12.88
2023-02-17T09:10:23.582Z,13.14
2023-02-17T09:11:28.967Z,13.27
2023-02-17T09:18:28.445Z,13.43
2023-02-17T09:32:43.108Z,12.02
2023-02-17T09:33:22.479Z,11.97
2023-02-17T09:34:02.955Z,11.93
2023-02-17T09:34:40.050Z,11.89
2023-02-17T09:35:17.241Z,11.87
2023-02-17T09:35:50.198Z,11.83
2023-02-17T09:36:43.281Z,11.81
2023-02-17T09:37:36.461Z,11.77
2023-02-17T09:38:10.364Z,11.71
2023-02-17T09:38:43.065Z,11.68
2023-02-17T09:39:15.336Z,11.66
2023-02-17T09:39:48.546Z,11.65
2023-02-17T09:40:47.468Z,11.63
2023-02-17T09:41:19.745Z,11.62
2023-02-17T09:41:54.855Z,11.62
2023-02-17T09:42:28.844Z,11.63
2023-02-17T09:43:01.689Z,11.64
2023-02-17T09:43:34.250Z,11.66
2023-02-17T09:44:22.550Z,11.68
2023-02-17T09:45:08.575Z,11.79
2023-02-17T09:45:46.666Z,12.07
2023-02-17T09:47:01.796Z,12.26
2023-02-17T09:47:49.115Z,12.51
2023-02-17T09:48:28.220Z,12.76
2023-02-17T09:49:07.740Z,12.99
2023-02-17T09:49:45.659Z,13.08
2023-02-17T09:50:29.538Z,13.24
2023-02-17T09:51:12.630Z,13.60
2023-02-17T09:51:58.760Z,13.86
2023-02-17T09:52:36.218Z,14.46
2023-02-17T09:53:43.293Z,15.27
2023-02-17T09:54:25.867Z,16.98
2023-02-17T09:55:05.971Z,17.05
2023-02-17T09:55:44.147Z,17.06
2023-02-17T09:56:22.884Z,17.02
2023-02-17T09:56:57.638Z,17.11
2023-02-17T09:57:46.340Z,17.25
2023-02-17T09:58:27.383Z,17.48
2023-02-17T09:59:19.880Z,17.60
2023-02-17T10:00:17.658Z,17.76
2023-02-17T10:01:08.999Z,17.89
2023-02-17T10:01:46.602Z,18.19
2023-02-17T10:02:45.596Z,18.58
2023-02-17T10:03:26.008Z,18.92
2023-02-17T10:04:22.741Z,18.99
2023-02-17T10:05:00.168Z,19.00
2023-02-17T10:05:49.401Z,18.97
2023-02-17T10:06:43.880Z,18.95
2023-02-17T10:07:33.004Z,18.95
2023-02-17T10:08:16.418Z,18.89
2023-02-17T10:08:55.011Z,18.84
2023-02-17T10:09:46.576Z,18.76
2023-02-17T10:10:27.946Z,18.53
2023-02-17T10:11:14.484Z,18.19
2023-02-17T10:12:01.160Z,17.78
2023-02-17T10:12:50.292Z,17.47
2023-02-17T10:13:27.036Z,17.14
2023-02-17T10:14:04.865Z,16.84
2023-02-17T10:14:59.232Z,16.53
2023-02-17T10:15:39.305Z,16.10
2023-02-17T10:16:31.066Z,15.84
2023-02-17T10:17:08.040Z,15.76
2023-02-17T10:18:05.913Z,15.71
2023-02-17T10:18:52.961Z,15.66
2023-02-17T10:19:27.780Z,15.63
2023-02-17T10:20:54.385Z,15.56
2023-02-17T10:21:40.894Z,15.51
2023-02-17T10:22:20.047Z,15.52
2023-02-17T10:23:04.738Z,15.49
2023-02-17T10:23:37.394Z,15.40
2023-02-17T10:24:10.165Z,15.34
2023-02-17T10:24:42.827Z,15.28
2023-02-17T10:25:18.766Z,15.23
2023-02-17T10:26:16.564Z,15.18
2023-02-17T10:27:01.954Z,15.09
2023-02-17T10:28:00.367Z,15.04
2023-02-17T10:28:46.719Z,14.97
2023-02-17T10:29:36.247Z,14.93
2023-02-17T10:30:31.043Z,14.88
2023-02-17T10:31:15.559Z,14.78
2023-02-17T10:32:02.478Z,14.69
2023-02-17T10:32:58.537Z,14.63
2023-02-17T10:33:38.126Z,14.57
2023-02-17T10:34:36.691Z,14.52
2023-02-17T10:35:16.478Z,14.44
2023-02-17T10:35:59.091Z,14.37
2023-02-17T10:37:11.261Z,14.26
2023-02-17T10:37:55.391Z,14.15
2023-02-17T10:41:14.616Z,13.97
2023-02-17T10:47:00.456Z,13.55
2023-02-17T10:47:36.697Z,13.51
2023-02-17T10:48:20.131Z,13.46
2023-02-17T10:48:57.174Z,13.40
2023-02-17T10:49:34.693Z,13.35
2023-02-17T10:50:19.531Z,13.29
2023-02-17T10:50:53.990Z,13.25
2023-02-17T10:51:41.050Z,13.21
2023-02-17T10:53:02.187Z,13.17
2023-02-17T10:55:58.911Z,12.98
2023-02-17T10:57:37.371Z,12.94
2023-02-17T11:00:10.289Z,12.85
2023-02-17T11:00:50.058Z,12.81
2023-02-17T11:01:23.411Z,12.78
2023-02-17T11:02:20.026Z,12.76
2023-02-17T11:02:57.421Z,12.75
2023-02-17T11:03:34.485Z,12.73
2023-02-17T11:04:14.502Z,12.70
2023-02-17T11:04:52.547Z,12.68
2023-02-17T11:05:34.389Z,12.67
2023-02-17T11:06:23.720Z,12.65
2023-02-17T11:07:01.101Z,12.64
2023-02-17T11:07:35.182Z,12.62
2023-02-17T11:08:32.641Z,12.60
2023-02-17T11:09:28.928Z,12.57
2023-02-17T11:10:05.001Z,12.55
2023-02-17T11:10:41.358Z,12.53
2023-02-17T11:11:21.205Z,12.52
2023-02-17T11:13:46.229Z,12.44
2023-02-17T11:14:30.255Z,12.42
2023-02-17T11:15:14.586Z,12.40
2023-02-17T11:15:48.039Z,12.37
2023-02-17T11:16:29.267Z,12.36
2023-02-17T11:17:04.501Z,12.35
2023-02-17T11:17:39.737Z,12.35
2023-02-17T11:19:34.584Z,12.37
2023-02-17T11:20:31.686Z,12.37
2023-02-17T11:21:14.075Z,12.36
2023-02-17T11:21:47.247Z,12.35
2023-02-17T11:22:45.283Z,12.36
2023-02-17T11:23:24.929Z,12.38
2023-02-17T11:24:03.250Z,12.40
2023-02-17T11:24:36.174Z,12.41
2023-02-17T11:25:23.242Z,12.41
2023-02-17T11:26:23.211Z,12.40
2023-02-17T11:27:12.486Z,12.39
2023-02-17T11:27:51.782Z,12.39
2023-02-17T11:28:26.169Z,12.39
2023-02-17T11:29:09.952Z,12.38
2023-02-17T11:29:45.106Z,12.38
2023-02-17T11:30:30.558Z,12.38
2023-02-17T11:31:07.513Z,12.38
2023-02-17T11:31:40.169Z,12.38
2023-02-17T11:32:13.929Z,12.38
2023-02-17T11:32:49.696Z,12.39
2023-02-17T11:33:40.589Z,12.40
2023-02-17T11:34:15.159Z,12.40
2023-02-17T11:34:57.627Z,12.39
2023-02-17T11:36:23.441Z,12.37
2023-02-17T11:37:14.266Z,12.38
2023-02-17T11:38:10.639Z,12.39
2023-02-17T11:49:20.186Z,12.84
2023-02-17T11:49:55.991Z,12.86
2023-02-17T11:50:43.619Z,12.87
2023-02-17T11:51:32.543Z,12.87
2023-02-17T11:52:04.793Z,12.88
2023-02-17T11:52:54.655Z,12.88
2023-02-17T11:53:55.924Z,12.90
2023-02-17T11:54:45.233Z,12.90
2023-02-17T11:58:11.749Z,12.89
2023-02-17T11:58:49.894Z,12.87
2023-02-17T11:59:40.622Z,12.84
2023-02-17T12:00:15.461Z,12.81
2023-02-17T12:01:20.229Z,12.80
2023-02-17T12:02:11.273Z,12.80
2023-02-17T12:08:00.100Z,12.80
2023-02-17T12:08:49.124Z,12.80
2023-02-17T12:09:45.722Z,12.79
2023-02-17T12:10:49.487Z,12.79
2023-02-17T12:11:59.299Z,12.78
2023-02-17T12:12:43.555Z,12.79
2023-02-17T12:13:45.486Z,12.80
2023-02-17T12:14:42.230Z,12.81
2023-02-17T12:15:40.189Z,12.84
2023-02-17T12:16:23.508Z,12.88
2023-02-17T12:17:30.487Z,12.90
2023-02-17T12:18:27.401Z,12.94
2023-02-17T13:11:13.641Z,13.31
2023-02-17T13:11:45.964Z,13.31
2023-02-17T13:12:25.229Z,13.31
2023-02-17T13:13:11.991Z,13.31
2023-02-17T13:13:44.271Z,13.31
2023-02-17T13:14:39.288Z,13.32
2023-02-17T13:15:30.572Z,13.32
2023-02-17T13:16:11.497Z,13.32
2023-02-17T13:16:51.051Z,13.32
2023-02-17T13:17:33.989Z,13.32
2023-02-17T13:18:12.623Z,13.32
2023-02-17T13:18:50.303Z,13.32
2023-02-17T13:19:32.363Z,13.33
2023-02-17T13:20:23.597Z,13.35
2023-02-17T13:21:19.025Z,13.36
2023-02-17T13:22:08.849Z,13.36
2023-02-17T13:22:45.673Z,13.37
2023-02-17T13:23:36.916Z,13.38
2023-02-17T13:24:32.370Z,13.38
2023-02-17T13:25:05.796Z,13.38
2023-02-17T13:25:38.897Z,13.38
2023-02-17T13:26:14.034Z,13.38
2023-02-17T13:26:49.273Z,13.37
2023-02-17T13:27:32.811Z,13.38
2023-02-17T13:28:36.291Z,13.39
2023-02-17T13:29:11.669Z,13.38
2023-02-17T13:29:43.987Z,13.39
2023-02-17T13:56:31.092Z,13.18
2023-02-17T13:57:03.643Z,13.18
2023-02-17T13:57:37.630Z,13.17
2023-02-17T13:58:11.343Z,13.15
2023-02-17T13:58:43.596Z,13.15
2023-02-17T13:59:20.334Z,13.13
2023-02-17T13:59:52.634Z,13.12
2023-02-17T14:00:27.706Z,13.11
2023-02-17T14:01:02.478Z,13.10
2023-02-17T14:01:38.302Z,13.08
2023-02-17T14:02:35.039Z,13.06
2023-02-17T14:03:28.191Z,13.03
2023-02-17T14:04:00.576Z,13.01
2023-02-17T14:04:32.935Z,12.99
2023-02-17T14:05:18.194Z,12.98
2023-02-17T14:05:53.486Z,12.96
2023-02-17T14:06:28.636Z,12.95
2023-02-17T14:07:04.733Z,12.94
2023-02-17T14:07:37.310Z,12.92
2023-02-17T14:08:17.330Z,12.90
2023-02-17T14:08:49.648Z,12.89
2023-02-17T14:09:30.699Z,12.87
2023-02-17T14:10:03.102Z,12.85
2023-02-17T14:10:36.499Z,12.83
2023-02-17T14:11:24.853Z,12.81
2023-02-17T14:11:58.788Z,12.79
2023-02-17T14:12:31.357Z,12.77
2023-02-17T14:13:04.047Z,12.76
2023-02-17T14:13:38.917Z,12.75
2023-02-17T14:14:11.625Z,12.75
2023-02-17T14:14:47.615Z,12.74
2023-02-17T14:15:23.700Z,12.73
2023-02-17T14:15:58.968Z,12.72
2023-02-17T14:16:38.056Z,12.71
2023-02-17T14:17:36.193Z,12.69
2023-02-17T14:18:16.449Z,12.67
2023-02-17T14:18:48.877Z,12.67
2023-02-17T14:19:21.204Z,12.66
2023-02-17T14:19:56.764Z,12.66
2023-02-17T14:20:34.098Z,12.66
2023-02-17T14:21:25.220Z,12.65
2023-02-17T14:22:05.552Z,12.64
2023-02-17T14:22:38.164Z,12.63
2023-02-17T14:23:15.394Z,12.63
2023-02-17T14:23:52.229Z,12.62
2023-02-17T14:24:33.357Z,12.61
2023-02-17T14:25:09.323Z,12.60
2023-02-17T14:25:46.670Z,12.60
2023-02-17T14:26:39.419Z,12.58
2023-02-17T14:27:14.236Z,12.57
2023-02-17T14:27:50.225Z,12.57
2023-02-17T14:28:24.302Z,12.56
2023-02-17T14:28:59.911Z,12.56
2023-02-17T14:29:44.459Z,12.55
2023-02-17T14:30:40.211Z,12.54
2023-02-17T14:31:18.979Z,12.54
2023-02-17T14:31:53.030Z,12.54
2023-02-17T14:32:31.472Z,12.53
2023-02-17T14:33:18.400Z,12.52
2023-02-17T14:34:00.309Z,12.51
2023-02-17T14:34:35.519Z,12.51
2023-02-17T14:35:13.658Z,12.51
2023-02-17T14:35:53.627Z,12.51
2023-02-17T14:36:32.428Z,12.51
2023-02-17T14:37:18.309Z,12.51
2023-02-17T14:37:51.283Z,12.51
2023-02-17T14:38:26.982Z,12.50
2023-02-17T14:39:00.656Z,12.50
2023-02-17T14:39:32.983Z,12.50
2023-02-17T14:40:14.283Z,12.49
2023-02-17T14:40:46.705Z,12.49
2023-02-17T14:41:19.005Z,12.49
2023-02-17T14:41:51.288Z,12.49
2023-02-17T14:42:23.592Z,12.49
2023-02-17T14:42:55.900Z,12.49
2023-02-17T14:43:28.690Z,12.49
2023-02-17T14:44:01.181Z,12.49
2023-02-17T14:44:33.514Z,12.49
2023-02-17T14:45:06.696Z,12.50
2023-02-17T14:45:39.011Z,12.50
2023-02-17T14:46:11.464Z,12.50
2023-02-17T14:46:43.918Z,12.50
2023-02-17T14:47:16.248Z,12.50
2023-02-17T14:47:48.651Z,12.50
2023-02-17T14:48:21.050Z,12.49
2023-02-17T14:48:54.310Z,12.49
2023-02-17T14:49:26.720Z,12.49
2023-02-17T14:49:59.017Z,12.49
2023-02-17T14:50:35.216Z,12.48
2023-02-17T14:51:16.851Z,12.48
2023-02-17T14:51:49.164Z,12.48
2023-02-17T14:52:23.942Z,12.48
2023-02-17T14:52:56.412Z,12.48
2023-02-17T14:53:36.653Z,12.47
2023-02-17T14:54:17.470Z,12.46
2023-02-17T14:54:50.557Z,12.46
2023-02-17T14:55:33.735Z,12.45
2023-02-17T14:56:26.398Z,12.45
2023-02-17T14:57:12.563Z,12.44
2023-02-17T14:57:45.070Z,12.44
2023-02-17T14:58:20.900Z,12.44
2023-02-17T14:58:53.824Z,12.44
2023-02-17T14:59:26.164Z,12.44
2023-02-17T14:59:58.511Z,12.43
2023-02-17T15:00:31.202Z,12.43
2023-02-17T15:01:03.591Z,12.43
2023-02-17T15:01:35.982Z,12.43
2023-02-17T15:02:16.353Z,12.42
2023-02-17T15:02:48.691Z,12.41
2023-02-17T15:03:21.015Z,12.41
2023-02-17T15:03:54.213Z,12.41
2023-02-17T15:04:26.633Z,12.41
2023-02-17T15:04:59.049Z,12.41
2023-02-17T15:05:31.389Z,12.41
2023-02-17T15:06:03.778Z,12.41
2023-02-17T15:06:43.484Z,12.40
2023-02-17T15:07:18.131Z,12.39
2023-02-17T15:07:50.468Z,12.38
2023-02-17T15:08:32.209Z,12.37
2023-02-17T15:09:04.681Z,12.37
2023-02-17T15:09:37.020Z,12.36
2023-02-17T15:10:29.120Z,12.36
2023-02-17T15:11:02.632Z,12.36
2023-02-17T15:11:37.462Z,12.35
2023-02-17T15:12:17.607Z,12.33
2023-02-17T15:12:50.493Z,12.33
2023-02-17T15:13:22.819Z,12.32
2023-02-17T15:13:55.155Z,12.32
2023-02-17T15:14:27.444Z,12.32
2023-02-17T15:14:59.780Z,12.30
2023-02-17T15:15:32.126Z,12.29
2023-02-17T15:16:07.454Z,12.29
2023-02-17T15:16:40.097Z,12.29
2023-02-17T15:17:12.817Z,12.29
2023-02-17T15:17:45.166Z,12.29
2023-02-17T15:18:19.724Z,12.28
2023-02-17T15:18:52.123Z,12.28
2023-02-17T15:19:24.711Z,12.27
2023-02-17T15:19:57.058Z,12.27
2023-02-17T15:20:29.464Z,12.27
2023-02-17T15:21:01.864Z,12.26
2023-02-17T15:21:36.404Z,12.25
2023-02-17T15:22:11.875Z,12.24
2023-02-17T15:22:44.589Z,12.24
2023-02-17T15:23:19.825Z,12.23
2023-02-17T15:23:52.785Z,12.23
2023-02-17T15:24:30.489Z,12.23
2023-02-17T15:25:14.403Z,12.23
2023-02-17T15:25:48.127Z,12.23
2023-02-17T15:26:20.478Z,12.22
2023-02-17T15:26:52.913Z,12.22
2023-02-17T15:27:25.213Z,12.21
2023-02-17T15:27:57.581Z,12.21
2023-02-17T15:28:29.863Z,12.21